createdAt,value
2019-01-25T00:02:12.765Z,-2.96
2019-01-25T00:07:17.132Z,-3.13
2019-01-25T00:12:21.531Z,-3.41
2019-01-25T00:17:26.080Z,-3.36
2019-01-25T00:22:30.482Z,-2.93
2019-01-25T00:27:34.891Z,-3.28
2019-01-25T00:32:39.387Z,-3.54
2019-01-25T00:37:43.842Z,-3.43
2019-01-25T00:42:48.217Z,-3.17
2019-01-25T00:47:52.704Z,-3.01
2019-01-25T00:52:57.153Z,-3.11
2019-01-25T00:58:01.601Z,-3.52
2019-01-25T01:03:06.710Z,-3.14
2019-01-25T01:08:11.093Z,-3.26
2019-01-25T01:13:15.485Z,-3.27
2019-01-25T01:18:19.829Z,-3.31
2019-01-25T01:23:24.229Z,-3.27
2019-01-25T01:28:28.631Z,-3.28
2019-01-25T01:33:33.006Z,-3.23
2019-01-25T01:38:37.397Z,-3.27
2019-01-25T01:43:41.729Z,-3.48
2019-01-25T01:48:46.145Z,-3.37
2019-01-25T01:53:50.608Z,-3.51
2019-01-25T01:58:55.004Z,-3.55
2019-01-25T02:03:59.586Z,-3.51
2019-01-25T02:09:05.242Z,-3.22
2019-01-25T02:14:09.792Z,-3.73
2019-01-25T02:19:14.173Z,-3.70
2019-01-25T02:24:18.555Z,-3.78
2019-01-25T02:29:22.901Z,-3.61
2019-01-25T02:34:27.380Z,-3.58
2019-01-25T02:39:31.807Z,-3.38
2019-01-25T02:44:36.228Z,-3.21
2019-01-25T02:49:40.607Z,-3.39
2019-01-25T02:54:44.990Z,-3.68
2019-01-25T02:59:49.409Z,-3.35
2019-01-25T03:04:53.786Z,-3.46
2019-01-25T03:09:58.212Z,-3.47
2019-01-25T03:15:02.613Z,-3.67
2019-01-25T03:20:09.337Z,-3.44
2019-01-25T03:25:19.107Z,-3.44
2019-01-25T03:30:25.484Z,-3.53
2019-01-25T03:35:29.841Z,-3.58
2019-01-25T03:40:34.200Z,-3.46
2019-01-25T03:45:39.558Z,-3.78
2019-01-25T03:50:43.870Z,-3.71
2019-01-25T03:55:48.288Z,-3.88
2019-01-25T04:00:52.648Z,-3.63
2019-01-25T04:05:57.037Z,-3.33
2019-01-25T04:11:03.906Z,-3.46
2019-01-25T04:16:07.496Z,-3.70
2019-01-25T04:21:11.917Z,-3.27
2019-01-25T04:26:16.287Z,-3.16
2019-01-25T04:31:20.890Z,-3.44
2019-01-25T04:36:25.279Z,-3.25
2019-01-25T04:41:29.652Z,-3.25
2019-01-25T04:46:34.001Z,-3.18
2019-01-25T04:51:38.352Z,-3.44
2019-01-25T04:56:42.739Z,-3.20
2019-01-25T05:01:47.130Z,-3.19
2019-01-25T05:06:51.556Z,-3.33
2019-01-25T05:11:55.906Z,-3.17
2019-01-25T05:17:00.276Z,-3.30
2019-01-25T05:22:04.646Z,-3.33
2019-01-25T05:27:09.089Z,-3.32
2019-01-25T05:32:15.541Z,-3.18
2019-01-25T05:37:19.551Z,-3.27
2019-01-25T05:42:23.901Z,-3.42
2019-01-25T05:47:28.262Z,-3.29
2019-01-25T05:52:32.642Z,-3.44
2019-01-25T05:57:37.031Z,-3.52
2019-01-25T06:02:41.480Z,-3.25
2019-01-25T06:07:45.851Z,-3.07
2019-01-25T06:12:54.636Z,-3.38
2019-01-25T06:18:01.253Z,-3.46
2019-01-25T06:23:05.647Z,-3.56
2019-01-25T06:28:10.198Z,-3.46
2019-01-25T06:33:14.541Z,-3.04
2019-01-25T06:38:18.918Z,-3.21
2019-01-25T06:43:23.354Z,-3.25
2019-01-25T06:48:27.791Z,-3.18
2019-01-25T06:53:32.168Z,-3.15
2019-01-25T06:58:38.160Z,-3.21
2019-01-25T07:03:42.536Z,-3.20
2019-01-25T07:08:46.923Z,-3.25
2019-01-25T07:13:51.308Z,-3.19
2019-01-25T07:18:55.648Z,-3.10
2019-01-25T07:23:59.994Z,-3.16
2019-01-25T07:29:05.162Z,-3.35
2019-01-25T07:34:10.750Z,-3.38
2019-01-25T07:39:18.513Z,-3.22
2019-01-25T07:44:22.957Z,-2.79
2019-01-25T07:49:28.430Z,-3.33
2019-01-25T07:54:32.888Z,-3.14
2019-01-25T07:59:37.271Z,-3.03
2019-01-25T08:04:41.635Z,-3.34
2019-01-25T08:09:47.056Z,-2.78
2019-01-25T08:14:51.437Z,-3.03
2019-01-25T08:19:55.893Z,-2.80
2019-01-25T08:25:00.736Z,-2.79
2019-01-25T08:30:19.884Z,-2.93
2019-01-25T08:35:24.302Z,-2.81
2019-01-25T08:40:28.706Z,-2.89
2019-01-25T08:45:33.140Z,-2.95
2019-01-25T08:50:37.698Z,-2.85
2019-01-25T08:55:42.555Z,-2.57
2019-01-25T09:00:46.938Z,-2.72
2019-01-25T09:05:51.331Z,-3.05
2019-01-25T09:10:55.830Z,-2.70
2019-01-25T09:16:00.362Z,-2.60
2019-01-25T09:21:04.831Z,-3.15
2019-01-25T09:26:09.213Z,-3.00
2019-01-25T09:31:13.576Z,-2.82
2019-01-25T09:36:17.941Z,-2.47
2019-01-25T09:41:24.243Z,-2.44
2019-01-25T09:46:30.165Z,-2.50
2019-01-25T09:51:34.845Z,-2.25
2019-01-25T09:56:39.214Z,-2.24
2019-01-25T10:01:43.609Z,-2.10
2019-01-25T10:06:48.755Z,-1.99
2019-01-25T10:11:53.142Z,-2.36
2019-01-25T10:16:57.508Z,-2.23
2019-01-25T10:22:02.060Z,-1.98
2019-01-25T10:27:06.487Z,-2.02
2019-01-25T10:32:10.841Z,-1.79
2019-01-25T10:37:15.210Z,-2.37
2019-01-25T10:42:19.578Z,-1.75
2019-01-25T10:47:23.942Z,-1.68
2019-01-25T10:52:28.331Z,-2.04
2019-01-25T10:57:32.709Z,-1.71
2019-01-25T11:02:37.065Z,-2.38
2019-01-25T11:07:41.452Z,-2.02
2019-01-25T11:12:45.927Z,-1.80
2019-01-25T11:17:50.763Z,-1.92
2019-01-25T11:22:55.318Z,-2.34
2019-01-25T11:27:59.700Z,-2.06
2019-01-25T11:33:04.496Z,-2.35
2019-01-25T11:38:08.940Z,-1.94
2019-01-25T11:43:13.323Z,-2.08
2019-01-25T11:48:17.696Z,-2.31
2019-01-25T11:53:22.051Z,-1.92
2019-01-25T11:58:26.465Z,-1.50
2019-01-25T12:03:30.828Z,-1.99
2019-01-25T12:08:35.285Z,-1.83
2019-01-25T12:13:39.693Z,-1.71
2019-01-25T12:18:44.101Z,-1.55
2019-01-25T12:23:48.462Z,-1.59
2019-01-25T12:28:53.630Z,-2.04
2019-01-25T12:33:58.004Z,-1.89
2019-01-25T12:39:02.361Z,-1.48
2019-01-25T12:44:08.429Z,-1.41
2019-01-25T12:49:12.785Z,-1.53
2019-01-25T12:54:17.174Z,-1.66
2019-01-25T12:59:21.540Z,-1.88
2019-01-25T13:04:25.917Z,-1.03
2019-01-25T13:09:30.310Z,-0.99
2019-01-25T13:14:34.819Z,-0.98
2019-01-25T13:19:39.175Z,-1.08
2019-01-25T13:24:43.535Z,-0.95
2019-01-25T13:29:48.595Z,-1.04
2019-01-25T13:34:53.026Z,-1.03
2019-01-25T13:39:57.429Z,-1.08
2019-01-25T13:45:01.786Z,-0.87
2019-01-25T13:50:09.771Z,-0.98
2019-01-25T13:55:16.074Z,-1.05
2019-01-25T14:00:28.323Z,-1.00
2019-01-25T14:05:32.804Z,-0.94
2019-01-25T14:10:37.627Z,-1.26
2019-01-25T14:15:41.992Z,-1.17
2019-01-25T14:20:46.369Z,-0.91
2019-01-25T14:25:50.774Z,-1.09
2019-01-25T14:30:55.139Z,-1.10
2019-01-25T14:35:59.646Z,-0.97
2019-01-25T14:41:04.170Z,-0.91
2019-01-25T14:46:08.556Z,-1.10
2019-01-25T14:51:13.501Z,-0.99
2019-01-25T14:56:18.003Z,-0.80
2019-01-25T15:01:22.390Z,-0.88
2019-01-25T15:06:27.016Z,-1.01
2019-01-25T15:11:31.403Z,-0.83
2019-01-25T15:16:35.761Z,-1.11
2019-01-25T15:21:40.140Z,-0.78
2019-01-25T15:26:44.495Z,-0.84
2019-01-25T15:31:48.872Z,-0.76
2019-01-25T15:36:53.232Z,-0.90
2019-01-25T15:41:57.607Z,-0.17
2019-01-25T15:47:02.108Z,0.07
2019-01-25T15:52:06.436Z,-1.02
2019-01-25T15:57:10.839Z,-0.95
2019-01-25T16:02:15.236Z,-0.91
2019-01-25T16:07:19.616Z,-0.89
2019-01-25T16:12:24.092Z,-1.07
2019-01-25T16:17:28.618Z,-0.78
2019-01-25T16:22:32.989Z,-0.93
2019-01-25T16:27:37.464Z,-0.88
2019-01-25T16:32:41.798Z,-0.88
2019-01-25T16:37:46.166Z,-1.02
2019-01-25T16:42:50.567Z,-0.96
2019-01-25T16:47:55.071Z,-1.00
2019-01-25T16:52:59.888Z,-0.99
2019-01-25T16:58:04.528Z,-0.89
2019-01-25T17:03:09.145Z,-1.03
2019-01-25T17:08:14.580Z,-0.99
2019-01-25T17:13:19.196Z,-0.92
2019-01-25T17:18:23.586Z,-1.09
2019-01-25T17:23:27.970Z,-0.94
2019-01-25T17:28:32.351Z,-1.21
2019-01-25T17:33:36.857Z,-0.84
2019-01-25T17:38:41.272Z,-0.87
2019-01-25T17:43:45.699Z,-0.95
2019-01-25T17:48:50.112Z,-0.92
2019-01-25T17:53:54.478Z,-0.99
2019-01-25T17:58:58.834Z,-0.83
2019-01-25T18:04:03.188Z,-0.87
2019-01-25T18:09:07.978Z,-0.88
2019-01-25T18:14:13.244Z,-0.76
2019-01-25T18:19:17.632Z,-0.66
2019-01-25T18:24:22.075Z,-0.98
2019-01-25T18:29:26.809Z,-0.95
2019-01-25T18:34:31.231Z,-1.43
2019-01-25T18:39:35.596Z,-1.35
2019-01-25T18:44:39.949Z,-1.33
2019-01-25T18:49:44.294Z,-1.49
2019-01-25T18:54:48.661Z,-1.24
2019-01-25T18:59:53.168Z,-1.21
2019-01-25T19:04:57.577Z,-1.29
2019-01-25T19:10:01.974Z,-1.29
2019-01-25T19:15:09.695Z,-1.17
2019-01-25T19:20:14.979Z,-1.33
2019-01-25T19:25:19.412Z,-1.22
2019-01-25T19:30:26.148Z,-1.07
2019-01-25T19:35:30.610Z,-1.34
2019-01-25T19:40:36.230Z,-1.24
2019-01-25T19:45:40.751Z,-1.48
2019-01-25T19:50:45.251Z,-1.48
2019-01-25T19:55:49.630Z,-1.42
2019-01-25T20:00:54.024Z,-1.44
2019-01-25T20:05:58.922Z,-1.38
2019-01-25T20:11:03.838Z,-1.26
2019-01-25T20:16:09.715Z,-1.41
2019-01-25T20:21:14.832Z,-1.48
2019-01-25T20:26:19.674Z,-1.14
2019-01-25T20:31:26.066Z,-1.20
2019-01-25T20:36:31.220Z,-1.10
2019-01-25T20:41:35.922Z,-1.16
2019-01-25T20:46:41.038Z,-1.22
2019-01-25T20:51:47.428Z,-1.34
2019-01-25T20:56:52.556Z,-1.24
2019-01-25T21:01:58.403Z,-1.34
2019-01-25T21:07:03.055Z,-1.32
2019-01-25T21:12:09.340Z,-1.18
2019-01-25T21:17:14.037Z,-1.32
2019-01-25T21:22:18.890Z,-1.32
2019-01-25T21:27:23.793Z,-1.48
2019-01-25T21:32:29.095Z,-1.29
2019-01-25T21:37:34.612Z,-1.24
2019-01-25T21:42:39.243Z,-1.29
2019-01-25T21:47:43.625Z,-1.24
2019-01-25T21:52:48.279Z,-1.25
2019-01-25T21:57:53.769Z,-1.34
2019-01-25T22:02:58.127Z,-1.29
2019-01-25T22:08:02.593Z,-1.29
2019-01-25T22:13:07.314Z,-1.39
2019-01-25T22:18:11.975Z,-0.94
2019-01-25T22:23:17.101Z,-1.23
2019-01-25T22:28:21.605Z,-1.19
2019-01-25T22:33:25.965Z,-1.49
2019-01-25T22:38:30.321Z,-1.28
2019-01-25T22:43:34.716Z,-1.32
2019-01-25T22:48:39.124Z,-1.02
2019-01-25T22:53:43.578Z,-1.24
2019-01-25T22:58:47.934Z,-0.77
2019-01-25T23:04:01.245Z,-0.98
2019-01-25T23:09:17.975Z,-1.19
2019-01-25T23:14:23.328Z,-1.09
2019-01-25T23:19:27.877Z,-1.15
2019-01-25T23:24:32.249Z,-0.90
2019-01-25T23:29:36.623Z,-0.77
2019-01-25T23:34:40.967Z,-0.67
2019-01-25T23:39:45.368Z,-0.82
2019-01-25T23:44:49.779Z,-1.06
2019-01-25T23:49:54.128Z,-1.03
2019-01-25T23:54:58.471Z,-0.94
